Time;durP1;ratioP1;P1;durP2;ratioP2;P2;SDS_P1;SDS_P2;PMS_P1;PMS_P2;Temp;Humidity;BMP_temperature;BMP_pressure;BME280_temperature;BME280_humidity;BME280_pressure;Samples;Min_cycle;Max_cycle;Signal;HPM_P1;HPM_P2
2022/06/30 00:03:06;;;;;;;1.73;1.63;;;;;;;-146.19;100.00;65364.44;10008807;29;20428;-83
2022/06/30 00:08:26;;;;;;;3.55;2.10;;;;;;;-146.19;100.00;65364.44;9997942;29;20061;-83
2022/06/30 00:13:46;;;;;;;1.80;1.70;;;;;;;-146.19;100.00;65364.44;10008575;29;20058;-83
2022/06/30 00:19:05;;;;;;;2.60;1.80;;;;;;;-146.19;100.00;65364.44;10012878;29;20058;-83
2022/06/30 00:24:25;;;;;;;2.88;1.92;;;;;;;-146.19;100.00;65364.44;9996377;29;20400;-83
2022/06/30 00:29:44;;;;;;;2.13;1.90;;;;;;;-146.19;100.00;65364.44;9995753;29;20061;-83
2022/06/30 00:35:04;;;;;;;1.85;1.75;;;;;;;-146.19;100.00;65364.44;9996715;29;20470;-83
2022/06/30 00:40:23;;;;;;;2.08;1.75;;;;;;;-146.19;100.00;65364.44;10003134;29;20050;-83
2022/06/30 00:45:46;;;;;;;2.10;1.90;;;;;;;-146.19;100.00;65364.44;10011854;29;20076;-82
2022/06/30 00:51:06;;;;;;;2.75;1.67;;;;;;;-146.19;100.00;65364.44;10027252;29;20073;-82
2022/06/30 00:56:27;;;;;;;3.67;2.05;;;;;;;-146.19;100.00;65364.44;10001239;29;20050;-83
2022/06/30 01:01:49;;;;;;;2.10;2.00;;;;;;;-146.19;100.00;65364.44;9993213;29;20062;-82
2022/06/30 01:07:09;;;;;;;2.47;2.05;;;;;;;-146.19;100.00;65364.44;9990374;29;20470;-84
2022/06/30 01:12:44;;;;;;;2.03;1.83;;;;;;;-146.19;100.00;65364.44;9999292;29;20337;-83
2022/06/30 01:18:03;;;;;;;2.53;2.17;;;;;;;-146.19;100.00;65364.44;10010235;29;20079;-83
2022/06/30 01:23:23;;;;;;;2.28;2.05;;;;;;;-146.19;100.00;65364.44;10014505;29;20053;-83
2022/06/30 01:28:43;;;;;;;3.17;2.15;;;;;;;-146.19;100.00;65364.44;10023780;29;20054;-82
2022/06/30 01:34:02;;;;;;;2.15;2.00;;;;;;;-146.19;100.00;65364.44;10018758;29;20069;-83
2022/06/30 01:39:21;;;;;;;2.80;2.20;;;;;;;-146.19;100.00;65364.44;10033931;29;20079;-83
2022/06/30 01:44:41;;;;;;;3.70;2.40;;;;;;;-146.19;100.00;65364.44;10014781;29;20062;-82
2022/06/30 01:50:02;;;;;;;2.30;2.17;;;;;;;-146.19;100.00;65364.44;10006961;29;20110;-82
2022/06/30 01:55:23;;;;;;;2.50;2.30;;;;;;;-146.19;100.00;65364.44;10004846;29;20049;-84
2022/06/30 02:00:42;;;;;;;2.35;2.15;;;;;;;-146.19;100.00;65364.44;10003460;29;20133;-83
2022/06/30 02:06:02;;;;;;;2.40;2.20;;;;;;;-146.19;100.00;65364.44;9998387;29;20454;-83
2022/06/30 02:11:22;;;;;;;2.72;2.38;;;;;;;-146.19;100.00;65364.44;10003687;29;20110;-83
2022/06/30 02:16:41;;;;;;;2.97;2.67;;;;;;;-146.19;100.00;65364.44;10014472;29;20050;-83
2022/06/30 02:22:00;;;;;;;2.70;2.50;;;;;;;-146.19;100.00;65364.44;10004267;29;20051;-83
2022/06/30 02:27:24;;;;;;;3.67;2.90;;;;;;;-146.19;100.00;65364.44;10013590;29;20057;-83
2022/06/30 02:32:44;;;;;;;2.67;2.33;;;;;;;-146.19;100.00;65364.44;9997105;29;20054;-83
2022/06/30 02:38:10;;;;;;;3.30;2.70;;;;;;;-146.19;100.00;65364.44;9957453;29;20066;-83
2022/06/30 02:43:30;;;;;;;3.25;2.95;;;;;;;-146.19;100.00;65364.44;9965588;29;20046;-83
2022/06/30 02:48:50;;;;;;;2.90;2.58;;;;;;;-146.19;100.00;65364.44;9948216;29;20068;-83
2022/06/30 02:54:09;;;;;;;3.58;2.90;;;;;;;-146.19;100.00;65364.44;9956568;29;20062;-83
2022/06/30 02:59:29;;;;;;;4.30;2.55;;;;;;;-146.19;100.00;65364.44;9962395;29;20058;-83
2022/06/30 03:04:49;;;;;;;2.50;2.30;;;;;;;-146.19;100.00;65364.44;9962511;29;20055;-83
2022/06/30 03:10:09;;;;;;;2.90;2.55;;;;;;;-146.19;100.00;65364.44;9985722;29;20058;-82
2022/06/30 03:15:29;;;;;;;2.35;2.15;;;;;;;-146.19;100.00;65364.44;9984310;29;20646;-82
2022/06/30 03:20:48;;;;;;;2.88;2.65;;;;;;;-146.19;100.00;65364.44;9979957;29;20087;-83
2022/06/30 03:26:08;;;;;;;2.75;2.50;;;;;;;-146.19;100.00;65364.44;9975355;29;20065;-83
2022/06/30 03:31:27;;;;;;;3.28;2.85;;;;;;;-146.19;100.00;65364.44;9989641;29;20046;-83
2022/06/30 03:36:46;;;;;;;3.28;3.03;;;;;;;-146.19;100.00;65364.44;9973930;29;20063;-83
2022/06/30 03:42:06;;;;;;;2.63;2.42;;;;;;;-146.19;100.00;65364.44;9996172;29;20054;-83
2022/06/30 03:47:26;;;;;;;3.17;2.58;;;;;;;-146.19;100.00;65364.44;10009777;29;20069;-83
2022/06/30 03:52:45;;;;;;;2.72;2.50;;;;;;;-146.19;100.00;65364.44;10011301;29;20049;-83
2022/06/30 03:58:08;;;;;;;3.38;3.08;;;;;;;-146.19;100.00;65364.44;10001475;29;20569;-83
2022/06/30 04:03:28;;;;;;;6.88;6.18;;;;;;;-146.19;100.00;65364.44;10011060;29;20054;-83
2022/06/30 04:08:47;;;;;;;7.28;6.57;;;;;;;-146.19;100.00;65364.44;10013997;29;20058;-84
2022/06/30 04:14:07;;;;;;;6.80;6.20;;;;;;;-146.19;100.00;65364.44;9983423;29;20490;-83
2022/06/30 04:19:27;;;;;;;7.60;5.72;;;;;;;-146.19;100.00;65364.44;10019383;29;20068;-83
2022/06/30 04:24:46;;;;;;;6.45;5.85;;;;;;;-146.19;100.00;65364.44;9985917;29;20058;-83
2022/06/30 04:30:06;;;;;;;5.85;5.35;;;;;;;-146.19;100.00;65364.44;10013018;29;20125;-83
2022/06/30 04:35:25;;;;;;;6.18;5.18;;;;;;;-146.19;100.00;65364.44;10017206;29;20058;-83
2022/06/30 04:46:23;;;;;;;7.05;5.50;;;;;;;-146.19;100.00;65364.44;10010556;29;20505;-82
2022/06/30 04:51:43;;;;;;;5.97;5.38;;;;;;;-146.19;100.00;65364.44;10014961;29;20057;-83
2022/06/30 04:57:03;;;;;;;4.70;4.30;;;;;;;-146.19;100.00;65364.44;10000352;29;20062;-83
2022/06/30 05:02:22;;;;;;;3.85;3.47;;;;;;;-146.19;100.00;65364.44;10017700;29;20422;-83
2022/06/30 05:07:42;;;;;;;3.53;3.22;;;;;;;-146.19;100.00;65364.44;10020049;29;20140;-83
2022/06/30 05:13:01;;;;;;;4.22;3.38;;;;;;;-146.19;100.00;65364.44;10035243;29;20426;-83
2022/06/30 05:18:21;;;;;;;3.70;3.40;;;;;;;-146.19;100.00;65364.44;10014730;29;20105;-82
2022/06/30 05:26:28;;;;;;;4.43;3.58;;;;;;;-146.19;100.00;65364.44;10028444;29;20068;-83
2022/06/30 05:29:20;;;;;;;3.47;3.17;;;;;;;-146.19;100.00;65364.44;10013911;29;20061;-83
2022/06/30 05:34:39;;;;;;;5.15;3.92;;;;;;;-146.19;100.00;65364.44;9998112;29;20081;-83
2022/06/30 05:39:59;;;;;;;8.35;4.93;;;;;;;-146.19;100.00;65364.44;9995735;29;20062;-82
2022/06/30 05:45:19;;;;;;;9.73;4.70;;;;;;;-146.19;100.00;65364.44;10000121;29;20058;-83
2022/06/30 05:50:39;;;;;;;5.30;4.80;;;;;;;-146.19;100.00;65364.44;9993150;29;20054;-83
2022/06/30 05:55:58;;;;;;;5.38;4.47;;;;;;;-146.19;100.00;65364.44;10003943;29;20054;-83
2022/06/30 06:01:20;;;;;;;5.70;4.50;;;;;;;-146.19;100.00;65364.44;10000751;29;20080;-83
2022/06/30 06:06:40;;;;;;;4.80;4.30;;;;;;;-146.19;100.00;65364.44;9981247;29;20069;-84
2022/06/30 06:12:00;;;;;;;8.18;5.03;;;;;;;-146.19;100.00;65364.44;10014894;29;20069;-83
2022/06/30 06:17:20;;;;;;;4.70;4.25;;;;;;;-146.19;100.00;65364.44;10013661;29;20459;-83
2022/06/30 06:22:40;;;;;;;6.75;4.78;;;;;;;-146.19;100.00;65364.44;10013861;29;20065;-83
2022/06/30 06:33:38;;;;;;;4.53;3.92;;;;;;;-146.19;100.00;65364.44;10004579;29;20046;-83
2022/06/30 06:38:58;;;;;;;4.60;4.18;;;;;;;-146.19;100.00;65364.44;9995474;29;20061;-83
2022/06/30 06:44:17;;;;;;;4.85;3.97;;;;;;;-146.19;100.00;65364.44;9978091;29;20545;-83
2022/06/30 06:49:37;;;;;;;4.63;4.20;;;;;;;-146.19;100.00;65364.44;9976015;29;20066;-83
2022/06/30 06:54:57;;;;;;;6.90;4.40;;;;;;;-146.19;100.00;65364.44;10009578;29;20055;-81
2022/06/30 07:00:17;;;;;;;5.15;4.35;;;;;;;-146.19;100.00;65364.44;10014976;29;20064;-81
2022/06/30 07:05:37;;;;;;;4.70;4.30;;;;;;;-146.19;100.00;65364.44;10021697;29;20179;-84
2022/06/30 07:10:57;;;;;;;5.80;4.40;;;;;;;-146.19;100.00;65364.44;9984231;29;20126;-84
2022/06/30 07:16:16;;;;;;;5.68;4.50;;;;;;;-146.19;100.00;65364.44;10017160;29;20150;-80
2022/06/30 07:21:35;;;;;;;4.30;3.88;;;;;;;-146.19;100.00;65364.44;10001189;29;20062;-84
2022/06/30 07:26:55;;;;;;;4.53;4.13;;;;;;;-146.19;100.00;65364.44;9987084;29;20055;-84
2022/06/30 07:32:14;;;;;;;4.82;4.43;;;;;;;-146.19;100.00;65364.44;10012191;29;20065;-84
2022/06/30 07:37:38;;;;;;;4.78;4.28;;;;;;;-146.19;100.00;65364.44;9998360;29;20049;-83
2022/06/30 07:42:57;;;;;;;4.72;4.22;;;;;;;-146.19;100.00;65364.44;10001392;29;20083;-83
2022/06/30 07:48:17;;;;;;;4.25;3.80;;;;;;;-146.19;100.00;65364.44;10005704;29;20114;-83
2022/06/30 07:53:37;;;;;;;4.13;3.72;;;;;;;-146.19;100.00;65364.44;10010357;29;20101;-84
2022/06/30 07:58:57;;;;;;;5.95;4.00;;;;;;;-146.19;100.00;65364.44;9989651;29;20080;-83
2022/06/30 08:04:17;;;;;;;3.88;3.58;;;;;;;-146.19;100.00;65364.44;10010181;29;20064;-82
2022/06/30 08:09:41;;;;;;;7.68;4.22;;;;;;;-146.19;100.00;65364.44;10013234;29;20077;-83
2022/06/30 08:15:01;;;;;;;4.82;4.10;;;;;;;-146.19;100.00;65364.44;10012622;29;20053;-82
2022/06/30 08:20:21;;;;;;;4.88;3.95;;;;;;;-146.19;100.00;65364.44;10010492;29;20053;-82
2022/06/30 08:25:40;;;;;;;4.07;3.65;;;;;;;-146.19;100.00;65364.44;10024187;29;20068;-81
2022/06/30 08:31:01;;;;;;;5.20;4.18;;;;;;;-146.19;100.00;65364.44;10035441;29;20088;-82
2022/06/30 08:36:21;;;;;;;7.90;4.75;;;;;;;-146.19;100.00;65364.44;10020266;29;20049;-82
2022/06/30 08:47:18;;;;;;;6.07;4.80;;;;;;;-146.19;100.00;65364.44;10007089;29;20065;-82
2022/06/30 08:52:52;;;;;;;4.78;4.28;;;;;;;-146.19;100.00;65364.44;10013700;29;20054;-82
2022/06/30 08:58:12;;;;;;;7.30;4.68;;;;;;;-146.19;100.00;65364.44;10003049;29;20058;-82
2022/06/30 09:03:34;;;;;;;4.47;4.07;;;;;;;-146.19;100.00;65364.44;10031904;29;20070;-82
2022/06/30 09:08:54;;;;;;;4.50;4.10;;;;;;;-146.19;100.00;65364.44;10016286;29;20073;-82
2022/06/30 09:14:37;;;;;;;4.43;4.03;;;;;;;-146.19;100.00;65364.44;10001348;29;20129;-81
2022/06/30 09:20:10;;;;;;;5.13;4.32;;;;;;;-146.19;100.00;65364.44;9997798;29;20054;-81
2022/06/30 09:25:30;;;;;;;4.50;4.10;;;;;;;-146.19;100.00;65364.44;10009011;29;20058;-81
2022/06/30 09:30:56;;;;;;;4.88;4.43;;;;;;;-146.19;100.00;65364.44;10001731;29;20068;-82
2022/06/30 09:36:26;;;;;;;6.18;4.45;;;;;;;-146.19;100.00;65364.44;9994322;29;20049;-83
2022/06/30 09:41:47;;;;;;;5.97;4.13;;;;;;;-146.19;100.00;65364.44;10029489;29;20121;-83
2022/06/30 09:47:10;;;;;;;4.85;4.45;;;;;;;-146.19;100.00;65364.44;10021674;29;20089;-83
2022/06/30 09:52:29;;;;;;;5.40;4.90;;;;;;;-146.19;100.00;65364.44;9998935;29;20069;-83
2022/06/30 09:57:49;;;;;;;5.25;4.75;;;;;;;-146.19;100.00;65364.44;10021125;29;20050;-82
2022/06/30 10:03:08;;;;;;;6.78;5.00;;;;;;;-146.19;100.00;65364.44;10023158;29;20058;-82
2022/06/30 10:08:28;;;;;;;5.00;4.50;;;;;;;-146.19;100.00;65364.44;10024087;29;20470;-82
2022/06/30 10:13:48;;;;;;;7.85;4.55;;;;;;;-146.19;100.00;65364.44;10002459;29;20509;-83
2022/06/30 10:19:12;;;;;;;5.22;4.13;;;;;;;-146.19;100.00;65364.44;10012098;29;20426;-83
2022/06/30 10:24:32;;;;;;;4.78;3.97;;;;;;;-146.19;100.00;65364.44;10017263;29;20126;-84
2022/06/30 10:29:57;;;;;;;4.65;3.83;;;;;;;-146.19;100.00;65364.44;9991932;29;20060;-84
2022/06/30 10:35:17;;;;;;;7.10;3.88;;;;;;;-146.19;100.00;65364.44;10008880;29;21993;-83
2022/06/30 10:41:04;;;;;;;3.75;3.45;;;;;;;-146.19;100.00;65364.44;10034262;29;20073;-83
2022/06/30 10:46:23;;;;;;;3.85;3.45;;;;;;;-146.19;100.00;65364.44;9996961;29;20403;-83
2022/06/30 10:51:45;;;;;;;4.05;3.58;;;;;;;-146.19;100.00;65364.44;10016533;29;20060;-82
2022/06/30 10:57:04;;;;;;;4.57;3.90;;;;;;;-146.19;100.00;65364.44;10002581;29;20057;-83
2022/06/30 11:02:26;;;;;;;3.80;3.50;;;;;;;-146.19;100.00;65364.44;10005978;29;20050;-83
2022/06/30 11:07:45;;;;;;;6.88;4.30;;;;;;;-146.19;100.00;65364.44;10007660;29;20077;-84
2022/06/30 11:13:06;;;;;;;5.53;4.07;;;;;;;-146.19;100.00;65364.44;10000420;29;20054;-83
2022/06/30 11:18:26;;;;;;;4.20;3.75;;;;;;;-146.19;100.00;65364.44;10001454;29;20057;-83
2022/06/30 11:23:47;;;;;;;6.50;4.25;;;;;;;-146.19;100.00;65364.44;10003608;29;20054;-83
2022/06/30 11:29:13;;;;;;;4.13;3.72;;;;;;;-146.19;100.00;65364.44;9981322;29;20076;-83
2022/06/30 11:34:37;;;;;;;4.30;3.90;;;;;;;-146.19;100.00;65364.44;10009650;29;20058;-83
2022/06/30 11:39:57;;;;;;;5.25;3.90;;;;;;;-146.19;100.00;65364.44;9985190;29;20394;-83
2022/06/30 11:45:19;;;;;;;6.65;4.30;;;;;;;-146.19;100.00;65364.44;10006725;29;20058;-82
2022/06/30 11:50:40;;;;;;;4.07;3.75;;;;;;;-146.19;100.00;65364.44;9999384;29;20050;-83
2022/06/30 11:55:59;;;;;;;4.65;3.78;;;;;;;-146.19;100.00;65364.44;10004900;29;20079;-83
2022/06/30 12:01:19;;;;;;;4.15;3.75;;;;;;;-146.19;100.00;65364.44;9984364;29;20106;-83
2022/06/30 12:06:39;;;;;;;4.00;3.70;;;;;;;-146.19;100.00;65364.44;10024033;29;20057;-83
2022/06/30 12:11:59;;;;;;;5.57;3.90;;;;;;;-146.19;100.00;65364.44;10030713;29;20050;-84
2022/06/30 12:17:19;;;;;;;4.47;4.07;;;;;;;-146.19;100.00;65364.44;9995711;29;20050;-83
2022/06/30 12:22:42;;;;;;;4.60;3.95;;;;;;;-146.19;100.00;65364.44;10003483;29;20049;-83
2022/06/30 12:28:03;;;;;;;5.20;3.90;;;;;;;-146.19;100.00;65364.44;10010387;29;20058;-83
2022/06/30 12:33:37;;;;;;;4.54;3.82;;;;;;;-146.19;100.00;65364.44;9142965;29;10001741;-83
2022/06/30 12:39:00;;;;;;;4.75;3.72;;;;;;;-146.19;100.00;65364.44;9692329;29;10001270;-82
2022/06/30 12:44:29;;;;;;;4.60;4.07;;;;;;;-146.19;100.00;65364.44;10056073;29;20130;-82
2022/06/30 12:49:49;;;;;;;4.72;4.32;;;;;;;-146.19;100.00;65364.44;10053889;29;20136;-82
2022/06/30 12:55:08;;;;;;;4.45;4.05;;;;;;;-146.19;100.00;65364.44;10055622;29;20118;-82
2022/06/30 13:00:44;;;;;;;4.63;4.22;;;;;;;-146.19;100.00;65364.44;10052389;29;20082;-83
2022/06/30 13:06:03;;;;;;;5.97;4.07;;;;;;;-146.19;100.00;65364.44;10060364;29;20068;-82
2022/06/30 13:11:25;;;;;;;4.43;4.03;;;;;;;-146.19;100.00;65364.44;10053436;29;20049;-83
2022/06/30 13:16:45;;;;;;;4.25;3.85;;;;;;;-146.19;100.00;65364.44;10054969;29;20061;-83
2022/06/30 13:22:05;;;;;;;5.25;4.60;;;;;;;-146.19;100.00;65364.44;10050148;29;20068;-83
2022/06/30 13:27:25;;;;;;;4.78;4.25;;;;;;;-146.19;100.00;65364.44;10045595;29;20054;-83
2022/06/30 13:32:44;;;;;;;5.88;4.38;;;;;;;-146.19;100.00;65364.44;10051155;29;20053;-83
2022/06/30 13:38:03;;;;;;;7.75;4.15;;;;;;;-146.19;100.00;65364.44;10037116;29;20053;-83
2022/06/30 13:43:23;;;;;;;6.72;4.45;;;;;;;-146.19;100.00;65364.44;10033191;29;20056;-83
2022/06/30 13:48:43;;;;;;;6.53;4.82;;;;;;;-146.19;100.00;65364.44;10048645;29;20049;-83
2022/06/30 13:54:03;;;;;;;5.45;4.15;;;;;;;-146.19;100.00;65364.44;10031146;29;20498;-83
2022/06/30 13:59:28;;;;;;;7.97;4.25;;;;;;;-146.19;100.00;65364.44;10039962;29;20053;-83
2022/06/30 14:04:48;;;;;;;5.72;3.95;;;;;;;-146.19;100.00;65364.44;10045630;29;20058;-83
2022/06/30 14:10:08;;;;;;;5.72;4.43;;;;;;;-146.19;100.00;65364.44;10043895;29;20058;-83
2022/06/30 14:15:28;;;;;;;6.93;4.43;;;;;;;-146.19;100.00;65364.44;10065939;29;20074;-83
2022/06/30 14:20:49;;;;;;;4.82;4.20;;;;;;;-146.19;100.00;65364.44;10058315;29;20053;-83
2022/06/30 14:26:09;;;;;;;5.72;3.97;;;;;;;-146.19;100.00;65364.44;10066536;29;20061;-83
2022/06/30 14:31:28;;;;;;;6.25;4.85;;;;;;;-146.19;100.00;65364.44;10057746;29;20831;-83
2022/06/30 14:36:49;;;;;;;6.10;4.55;;;;;;;-146.19;100.00;65364.44;10044137;29;20086;-83
2022/06/30 14:47:48;;;;;;;6.72;4.72;;;;;;;-146.19;100.00;65364.44;10046323;29;20086;-83
2022/06/30 14:53:07;;;;;;;4.82;3.85;;;;;;;-146.19;100.00;65364.44;10043256;29;20836;-83
2022/06/30 14:58:27;;;;;;;6.07;4.15;;;;;;;-146.19;100.00;65364.44;10057422;29;20072;-83
2022/06/30 15:03:46;;;;;;;6.63;4.78;;;;;;;-146.19;100.00;65364.44;10053937;29;20053;-84
2022/06/30 15:09:05;;;;;;;4.60;4.20;;;;;;;-146.19;100.00;65364.44;10006445;29;20057;-83
2022/06/30 15:14:26;;;;;;;4.93;4.47;;;;;;;-146.19;100.00;65364.44;10034068;29;20143;-83
2022/06/30 15:19:46;;;;;;;6.22;4.55;;;;;;;-146.19;100.00;65364.44;10023466;29;20057;-84
2022/06/30 15:25:07;;;;;;;5.15;4.30;;;;;;;-146.19;100.00;65364.44;10049636;29;20061;-84
2022/06/30 15:30:27;;;;;;;4.90;4.38;;;;;;;-146.19;100.00;65364.44;10039327;29;20060;-83
2022/06/30 15:35:47;;;;;;;6.63;4.65;;;;;;;-146.19;100.00;65364.44;9993717;29;1213234;-83
2022/06/30 15:41:06;;;;;;;4.60;4.13;;;;;;;-146.19;100.00;65364.44;10033961;29;20045;-83
2022/06/30 15:46:26;;;;;;;5.43;4.50;;;;;;;-146.19;100.00;65364.44;10045674;29;20057;-84
2022/06/30 15:51:45;;;;;;;5.57;4.32;;;;;;;-146.19;100.00;65364.44;10030809;29;20054;-84
2022/06/30 15:57:05;;;;;;;5.57;4.38;;;;;;;-146.19;100.00;65364.44;10050787;29;20049;-84
2022/06/30 16:02:25;;;;;;;4.65;4.15;;;;;;;-146.19;100.00;65364.44;10049634;29;20053;-83
2022/06/30 16:07:44;;;;;;;5.30;4.20;;;;;;;-146.19;100.00;65364.44;10054719;29;20118;-83
2022/06/30 16:13:03;;;;;;;4.75;4.25;;;;;;;-146.19;100.00;65364.44;10049763;29;20082;-85
2022/06/30 16:18:24;;;;;;;4.88;4.38;;;;;;;-146.19;100.00;65364.44;10036945;29;20057;-84
2022/06/30 16:23:45;;;;;;;7.85;4.78;;;;;;;-146.19;100.00;65364.44;10036741;29;20056;-85
2022/06/30 16:29:05;;;;;;;5.25;4.20;;;;;;;-146.19;100.00;65364.44;10041243;29;20053;-84
2022/06/30 16:34:24;;;;;;;6.40;4.53;;;;;;;-146.19;100.00;65364.44;10044621;29;20113;-84
2022/06/30 16:39:43;;;;;;;5.03;4.43;;;;;;;-146.19;100.00;65364.44;10047469;29;20420;-85
2022/06/30 16:45:03;;;;;;;6.40;4.88;;;;;;;-146.19;100.00;65364.44;10035098;29;20049;-85
2022/06/30 16:50:23;;;;;;;8.95;4.80;;;;;;;-146.19;100.00;65364.44;10034374;29;20057;-85
2022/06/30 16:55:43;;;;;;;6.35;5.25;;;;;;;-146.19;100.00;65364.44;10049384;29;20054;-85
2022/06/30 17:01:02;;;;;;;6.63;4.97;;;;;;;-146.19;100.00;65364.44;10034891;29;20053;-85
2022/06/30 17:06:22;;;;;;;8.45;5.35;;;;;;;-146.19;100.00;65364.44;10017691;29;20058;-85
2022/06/30 17:11:41;;;;;;;8.68;5.75;;;;;;;-146.19;100.00;65364.44;10037097;29;20412;-85
2022/06/30 17:17:01;;;;;;;6.70;5.20;;;;;;;-146.19;100.00;65364.44;10019863;29;20049;-84
2022/06/30 17:22:21;;;;;;;7.55;5.30;;;;;;;-146.19;100.00;65364.44;10030876;29;20109;-84
2022/06/30 17:27:40;;;;;;;6.63;5.32;;;;;;;-146.19;100.00;65364.44;10046976;29;20068;-85
2022/06/30 17:33:00;;;;;;;6.45;5.30;;;;;;;-146.19;100.00;65364.44;10055845;29;20049;-86
2022/06/30 17:38:19;;;;;;;8.25;5.43;;;;;;;-146.19;100.00;65364.44;10035422;29;20049;-84
2022/06/30 17:43:39;;;;;;;8.95;5.47;;;;;;;-146.19;100.00;65364.44;10031405;29;20069;-85
2022/06/30 17:48:59;;;;;;;12.07;7.32;;;;;;;-146.19;100.00;65364.44;10031138;29;20064;-83
2022/06/30 17:54:22;;;;;;;16.13;6.97;;;;;;;-146.19;100.00;65364.44;10056200;29;20047;-83
2022/06/30 17:59:42;;;;;;;11.43;6.68;;;;;;;-146.19;100.00;65364.44;10069577;29;20056;-83
2022/06/30 18:05:01;;;;;;;6.55;5.00;;;;;;;-146.19;100.00;65364.44;10051284;29;20057;-84
2022/06/30 18:15:59;;;;;;;8.25;4.85;;;;;;;-146.19;100.00;65364.44;10062333;29;20459;-83
2022/06/30 18:21:19;;;;;;;5.07;4.63;;;;;;;-146.19;100.00;65364.44;10046064;29;20056;-84
2022/06/30 18:26:38;;;;;;;7.05;4.70;;;;;;;-146.19;100.00;65364.44;10046526;29;20065;-83
2022/06/30 18:31:58;;;;;;;6.18;5.38;;;;;;;-146.19;100.00;65364.44;10042777;29;20051;-84
2022/06/30 18:37:20;;;;;;;6.55;5.00;;;;;;;-146.19;100.00;65364.44;10030226;29;20064;-85
2022/06/30 18:42:39;;;;;;;5.60;5.10;;;;;;;-146.19;100.00;65364.44;10044484;29;20076;-84
2022/06/30 18:48:00;;;;;;;7.18;5.45;;;;;;;-146.19;100.00;65364.44;10054934;29;20144;-86
2022/06/30 18:53:20;;;;;;;5.78;5.20;;;;;;;-146.19;100.00;65364.44;10042169;29;20651;-85
2022/06/30 18:58:39;;;;;;;5.95;5.40;;;;;;;-146.19;100.00;65364.44;10052476;29;20109;-84
2022/06/30 19:03:58;;;;;;;6.07;5.47;;;;;;;-146.19;100.00;65364.44;10033864;29;20069;-83
2022/06/30 19:09:18;;;;;;;6.40;5.90;;;;;;;-146.19;100.00;65364.44;10058696;29;20057;-84
2022/06/30 19:14:37;;;;;;;6.85;5.68;;;;;;;-146.19;100.00;65364.44;10061930;29;20050;-83
2022/06/30 19:19:57;;;;;;;6.30;5.70;;;;;;;-146.19;100.00;65364.44;10043358;29;20046;-82
2022/06/30 19:25:17;;;;;;;6.28;5.75;;;;;;;-146.19;100.00;65364.44;10047092;29;20041;-83
2022/06/30 19:30:36;;;;;;;9.07;5.95;;;;;;;-146.19;100.00;65364.44;10028728;29;20066;-83
2022/06/30 19:35:58;;;;;;;6.75;6.10;;;;;;;-146.19;100.00;65364.44;10027362;29;20060;-83
2022/06/30 19:41:17;;;;;;;6.47;5.78;;;;;;;-146.19;100.00;65364.44;10056828;29;20068;-84
2022/06/30 19:46:37;;;;;;;5.80;5.30;;;;;;;-146.19;100.00;65364.44;10041700;29;20066;-83
2022/06/30 19:51:56;;;;;;;7.75;6.20;;;;;;;-146.19;100.00;65364.44;10043824;29;20050;-83
2022/06/30 19:57:16;;;;;;;6.93;6.00;;;;;;;-146.19;100.00;65364.44;10052970;29;20054;-83
2022/06/30 20:13:52;;;;;;;8.02;6.22;;;;;;;-146.19;100.00;65364.44;10021365;29;20060;-83
2022/06/30 20:19:12;;;;;;;7.40;6.18;;;;;;;-146.19;100.00;65364.44;10010467;29;20417;-84
2022/06/30 20:24:32;;;;;;;6.97;6.38;;;;;;;-146.19;100.00;65364.44;10032911;29;20045;-84
2022/06/30 20:29:52;;;;;;;7.05;6.40;;;;;;;-146.19;100.00;65364.44;10056689;29;20061;-83
2022/06/30 20:35:12;;;;;;;7.18;6.57;;;;;;;-146.19;100.00;65364.44;10029429;29;20473;-85
2022/06/30 20:40:32;;;;;;;8.82;6.47;;;;;;;-146.19;100.00;65364.44;10019646;29;20054;-84
2022/06/30 20:45:52;;;;;;;7.22;6.60;;;;;;;-146.19;100.00;65364.44;10010991;29;20057;-83
2022/06/30 20:56:50;;;;;;;7.35;6.75;;;;;;;-146.19;100.00;65364.44;10037349;29;20049;-84
2022/06/30 21:02:09;;;;;;;7.53;6.82;;;;;;;-146.19;100.00;65364.44;10046306;29;20049;-84
2022/06/30 21:07:29;;;;;;;7.40;6.70;;;;;;;-146.19;100.00;65364.44;10020909;29;20113;-84
2022/06/30 21:12:48;;;;;;;7.15;6.53;;;;;;;-146.19;100.00;65364.44;10042872;29;20505;-83
2022/06/30 21:18:09;;;;;;;8.13;7.32;;;;;;;-146.19;100.00;65364.44;10023758;29;20406;-84
2022/06/30 21:23:28;;;;;;;7.72;7.03;;;;;;;-146.19;100.00;65364.44;10037479;29;20046;-83
2022/06/30 21:28:48;;;;;;;7.88;7.18;;;;;;;-146.19;100.00;65364.44;10044095;29;20054;-83
2022/06/30 21:34:08;;;;;;;7.60;6.90;;;;;;;-146.19;100.00;65364.44;10051604;29;20106;-84
2022/06/30 21:39:28;;;;;;;9.75;7.38;;;;;;;-146.19;100.00;65364.44;10028931;29;20057;-83
2022/06/30 21:44:48;;;;;;;7.47;6.72;;;;;;;-146.19;100.00;65364.44;10052298;29;20114;-84
2022/06/30 21:50:08;;;;;;;7.90;7.15;;;;;;;-146.19;100.00;65364.44;10064983;29;20065;-84
2022/06/30 21:55:27;;;;;;;7.45;6.85;;;;;;;-146.19;100.00;65364.44;10024703;29;20050;-84
2022/06/30 22:00:47;;;;;;;8.00;7.30;;;;;;;-146.19;100.00;65364.44;10047540;29;20469;-84
2022/06/30 22:06:06;;;;;;;8.07;7.28;;;;;;;-146.19;100.00;65364.44;10023886;29;20061;-84
2022/06/30 22:11:25;;;;;;;7.65;6.93;;;;;;;-146.19;100.00;65364.44;10038301;29;20601;-84
2022/06/30 22:16:45;;;;;;;8.13;7.43;;;;;;;-146.19;100.00;65364.44;10025761;29;20065;-84
2022/06/30 22:22:04;;;;;;;7.53;6.85;;;;;;;-146.19;100.00;65364.44;10033117;29;20046;-84
2022/06/30 22:27:24;;;;;;;7.93;7.32;;;;;;;-146.19;100.00;65364.44;10030683;29;20057;-84
2022/06/30 22:32:43;;;;;;;7.57;6.97;;;;;;;-146.19;100.00;65364.44;10041676;29;20049;-83
2022/06/30 22:38:02;;;;;;;7.95;7.25;;;;;;;-146.19;100.00;65364.44;10039351;29;20076;-84
2022/06/30 22:43:21;;;;;;;7.78;6.95;;;;;;;-146.19;100.00;65364.44;10059551;29;20046;-84
2022/06/30 22:48:41;;;;;;;7.25;6.65;;;;;;;-146.19;100.00;65364.44;10056746;29;20053;-84
2022/06/30 22:54:01;;;;;;;7.65;6.95;;;;;;;-146.19;100.00;65364.44;10047760;29;20578;-84
2022/06/30 22:59:20;;;;;;;7.95;7.28;;;;;;;-146.19;100.00;65364.44;10024824;29;20056;-84
2022/06/30 23:04:39;;;;;;;8.02;7.25;;;;;;;-146.19;100.00;65364.44;10046116;29;20049;-84
2022/06/30 23:09:58;;;;;;;7.75;7.15;;;;;;;-146.19;100.00;65364.44;10032948;29;20058;-84
2022/06/30 23:15:18;;;;;;;7.15;6.45;;;;;;;-146.19;100.00;65364.44;10009982;29;20056;-84
2022/06/30 23:20:38;;;;;;;7.45;6.85;;;;;;;-146.19;100.00;65364.44;10051543;29;20049;-84
2022/06/30 23:25:57;;;;;;;7.55;6.93;;;;;;;-146.19;100.00;65364.44;10042558;29;20081;-84
2022/06/30 23:31:16;;;;;;;7.60;7.00;;;;;;;-146.19;100.00;65364.44;10011721;29;20061;-84
2022/06/30 23:36:36;;;;;;;7.50;6.80;;;;;;;-146.19;100.00;65364.44;10036459;29;20395;-84
2022/06/30 23:41:56;;;;;;;7.75;7.07;;;;;;;-146.19;100.00;65364.44;10037054;29;20057;-84
2022/06/30 23:47:15;;;;;;;7.80;7.10;;;;;;;-146.19;100.00;65364.44;10053687;29;20057;-84
2022/06/30 23:52:34;;;;;;;7.38;6.78;;;;;;;-146.19;100.00;65364.44;10028408;29;20131;-84
2022/06/30 23:57:53;;;;;;;7.45;6.80;;;;;;;-146.19;100.00;65364.44;10036423;29;20144;-84
